Nearby METAR Reports

 

KAIK - Aiken, South Carolina, USA
Distance from station: NE 8mi, 13km
Updated: Thu, 23-Sep-2021 00:35 EDT
Clear
Clear
 Wind from NW
Wind: NW 9 km/h
Temperature: 61°F , 16°C
Dew Point: 57°F , 14°C
Humidity: 88%
Barometer: 29.93 inHg , 1013.5 hPa
Clouds: Clear
Visibility: 16 km
2021/09/23 04:35 KAIK 230435Z AUTO 31005KT 10SM CLR 16/14 A2993 RMK AO2 LTG DSNT SE T01620137
KDNL - Augusta/Daniel, Georgia, USA
Distance from station: WSW 16mi, 26km
Updated: Wed, 22-Sep-2021 23:53 EDT
Clear
Clear
 Wind from WNW
Wind: WNW 13 km/h
Temperature: 66°F , 19°C
Dew Point: 55°F , 13°C
Humidity: 68%
Barometer: 29.92 inHg , 1013.2 hPa
Clouds: Clear
Visibility: 16 km
2021/09/23 03:53 KDNL 230353Z AUTO 30007KT 10SM CLR 19/13 A2992 RMK AO2 SLP127 T01940128
 
KAGS - Augusta/Bush, Georgia, USA
Distance from station: SW 18mi, 28km
Updated: Wed, 22-Sep-2021 23:53 EDT
Clear
Clear
 Wind from NW
Wind: NW 15 km/h
Temperature: 66°F , 19°C
Dew Point: 57°F , 14°C
Humidity: 73%
Barometer: 29.91 inHg , 1012.9 hPa
Clouds: Clear
Visibility: 16 km
2021/09/23 03:53 KAGS 230353Z 32008KT 10SM CLR 19/14 A2991 RMK AO2 SLP126 T01940139
KBNL - Barnwell, South Carolina, USA
Distance from station: SE 33mi, 52km
Updated: Thu, 23-Sep-2021 00:35 EDT
Partly cloudy
Partly cloudy
 Wind from calm
Wind: Calm
Temperature: 64°F , 18°C
Dew Point: 61°F , 16°C
Humidity: 88%
Barometer: 29.91 inHg , 1012.9 hPa
Clouds: Partly cloudy
Visibility: 16 km
Cloud details: Few Clouds 6000 ft
Partly cloudy 7500 ft
Partly cloudy 8500 ft
2021/09/23 04:35 KBNL 230435Z AUTO 00000KT 10SM FEW060 SCT075 SCT085 18/16 A2991 RMK AO2 LTG DSNT E AND SE
 
KXNO - North Af Auxfld, South Carolina, USA
Distance from station: E 41mi, 66km
Updated: Wed, 22-Sep-2021 23:56 EDT
Clear
Clear
 Wind from WNW
Wind: WNW 9 km/h
Temperature: 66°F , 19°C
Barometer: 29.90 inHg , 1012.5 hPa
Clouds: Clear
Visibility: 16 km
2021/09/23 03:56 KXNO 230356Z AUTO 29005KT 10SM CLR 19/ A2990 RMK AO2 SLP125 $
KHQU - Mcduffie/Thomson, Georgia, USA
Distance from station: W 42mi, 68km
Updated: Thu, 23-Sep-2021 00:35 EDT
Clear
Clear
 Wind from WNW
Wind: WNW 11 km/h
Temperature: 61°F , 16°C
Dew Point: 57°F , 14°C
Humidity: 88%
Barometer: 29.94 inHg , 1013.9 hPa
Clouds: Clear
Visibility: 16 km
2021/09/23 04:35 KHQU 230435Z AUTO 30006KT 10SM CLR 16/14 A2994 RMK AO2 T01600138
 
KCAE - Columbia, South Carolina, USA
Distance from station: ENE 46mi, 74km
Updated: Wed, 22-Sep-2021 23:56 EDT
Clear
Clear
 Wind from NW
Wind: NW 6 km/h
Temperature: 68°F , 20°C
Dew Point: 61°F , 16°C
Humidity: 78%
Barometer: 29.89 inHg , 1012.2 hPa
Clouds: Clear
Visibility: 16 km
2021/09/23 03:56 KCAE 230356Z 32003KT 10SM CLR 20/16 A2989 RMK AO2 SLP118 T02000161
K2J5 - Millen, Georgia, USA
Distance from station: SSW 48mi, 77km
Updated: Thu, 23-Sep-2021 00:35 EDT

 
Temperature: 63°F , 17°C
Dew Point: 59°F , 15°C
Humidity: 88%
Barometer: 29.93 inHg , 1013.5 hPa
Visibility: 16 km
2021/09/23 04:35 K2J5 230435Z AUTO 10SM 17/15 A2993 RMK AO2 LTG DSNT SE T01720151
 
KAQX - Allendale, South Carolina, USA
Distance from station: SE 50mi, 80km
Updated: Thu, 23-Sep-2021 00:35 EDT
Clear
Clear
 Wind from calm
Wind: Calm
Temperature: 66°F , 19°C
Dew Point: 63°F , 17°C
Humidity: 88%
Barometer: 29.89 inHg , 1012.2 hPa
Clouds: Clear
Visibility: 16 km
2021/09/23 04:35 KAQX 230435Z AUTO 00000KT 10SM CLR 19/17 A2989 RMK AO2 LTG DSNT SE